sensor_id;sensor_type;location;lat;lon;timestamp;P1;durP1;ratioP1;P2;durP2;ratioP2
27794;SDS011;15176;50.844;4.412;2023-07-09T04:04:35;10.93;;;4.40;;
27794;SDS011;15176;50.844;4.412;2023-07-09T04:07:03;11.25;;;4.72;;
27794;SDS011;15176;50.844;4.412;2023-07-09T04:09:29;10.13;;;4.80;;
27794;SDS011;15176;50.844;4.412;2023-07-09T04:11:55;7.82;;;4.80;;
27794;SDS011;15176;50.844;4.412;2023-07-09T04:14:21;9.77;;;4.50;;
27794;SDS011;15176;50.844;4.412;2023-07-09T04:16:46;10.45;;;4.65;;
27794;SDS011;15176;50.844;4.412;2023-07-09T04:19:15;10.82;;;4.75;;
27794;SDS011;15176;50.844;4.412;2023-07-09T04:21:40;14.07;;;5.10;;
27794;SDS011;15176;50.844;4.412;2023-07-09T04:24:07;11.25;;;5.10;;
27794;SDS011;15176;50.844;4.412;2023-07-09T04:26:33;12.25;;;5.22;;
27794;SDS011;15176;50.844;4.412;2023-07-09T04:28:58;13.63;;;5.30;;
27794;SDS011;15176;50.844;4.412;2023-07-09T04:31:26;13.20;;;5.35;;
27794;SDS011;15176;50.844;4.412;2023-07-09T04:33:52;9.30;;;5.35;;
27794;SDS011;15176;50.844;4.412;2023-07-09T04:36:20;8.85;;;5.35;;
27794;SDS011;15176;50.844;4.412;2023-07-09T04:38:46;9.52;;;5.40;;
27794;SDS011;15176;50.844;4.412;2023-07-09T04:41:12;11.25;;;5.13;;
27794;SDS011;15176;50.844;4.412;2023-07-09T04:43:38;13.05;;;5.70;;
27794;SDS011;15176;50.844;4.412;2023-07-09T04:46:03;10.40;;;5.03;;
27794;SDS011;15176;50.844;4.412;2023-07-09T04:48:29;11.30;;;5.47;;
27794;SDS011;15176;50.844;4.412;2023-07-09T04:50:55;13.30;;;5.43;;
27794;SDS011;15176;50.844;4.412;2023-07-09T04:53:20;11.57;;;5.40;;
27794;SDS011;15176;50.844;4.412;2023-07-09T04:55:49;14.75;;;5.60;;
27794;SDS011;15176;50.844;4.412;2023-07-09T04:58:15;15.27;;;5.97;;
27794;SDS011;15176;50.844;4.412;2023-07-09T05:00:42;12.45;;;5.20;;
27794;SDS011;15176;50.844;4.412;2023-07-09T05:03:08;10.25;;;5.63;;
27794;SDS011;15176;50.844;4.412;2023-07-09T05:05:42;12.50;;;5.50;;
27794;SDS011;15176;50.844;4.412;2023-07-09T05:08:11;12.27;;;5.30;;
27794;SDS011;15176;50.844;4.412;2023-07-09T05:10:45;15.10;;;6.03;;
27794;SDS011;15176;50.844;4.412;2023-07-09T05:13:12;10.55;;;5.53;;
27794;SDS011;15176;50.844;4.412;2023-07-09T05:15:41;12.32;;;5.45;;
27794;SDS011;15176;50.844;4.412;2023-07-09T05:18:11;12.98;;;5.60;;
27794;SDS011;15176;50.844;4.412;2023-07-09T05:20:38;12.43;;;5.38;;
27794;SDS011;15176;50.844;4.412;2023-07-09T05:23:04;12.73;;;5.25;;
27794;SDS011;15176;50.844;4.412;2023-07-09T05:25:30;14.98;;;5.90;;
27794;SDS011;15176;50.844;4.412;2023-07-09T05:27:56;14.65;;;5.13;;
27794;SDS011;15176;50.844;4.412;2023-07-09T05:30:24;11.90;;;4.95;;
27794;SDS011;15176;50.844;4.412;2023-07-09T05:32:50;12.65;;;5.60;;
27794;SDS011;15176;50.844;4.412;2023-07-09T05:35:20;15.55;;;5.28;;
27794;SDS011;15176;50.844;4.412;2023-07-09T05:37:49;9.95;;;5.22;;
27794;SDS011;15176;50.844;4.412;2023-07-09T05:40:19;9.35;;;5.07;;
27794;SDS011;15176;50.844;4.412;2023-07-09T05:42:47;12.00;;;5.10;;
27794;SDS011;15176;50.844;4.412;2023-07-09T05:45:14;11.70;;;5.45;;
27794;SDS011;15176;50.844;4.412;2023-07-09T05:47:40;12.18;;;4.85;;
27794;SDS011;15176;50.844;4.412;2023-07-09T05:50:06;8.18;;;4.63;;
27794;SDS011;15176;50.844;4.412;2023-07-09T05:52:33;11.40;;;4.90;;
27794;SDS011;15176;50.844;4.412;2023-07-09T05:54:59;12.30;;;4.82;;
27794;SDS011;15176;50.844;4.412;2023-07-09T05:57:25;12.30;;;5.07;;
27794;SDS011;15176;50.844;4.412;2023-07-09T05:59:51;9.48;;;5.00;;
27794;SDS011;15176;50.844;4.412;2023-07-09T06:02:20;9.88;;;4.70;;
27794;SDS011;15176;50.844;4.412;2023-07-09T06:04:47;9.90;;;4.53;;
27794;SDS011;15176;50.844;4.412;2023-07-09T06:07:16;8.75;;;4.90;;
27794;SDS011;15176;50.844;4.412;2023-07-09T06:09:43;11.77;;;5.05;;
27794;SDS011;15176;50.844;4.412;2023-07-09T06:12:11;10.32;;;4.70;;
27794;SDS011;15176;50.844;4.412;2023-07-09T06:14:37;9.93;;;5.20;;
27794;SDS011;15176;50.844;4.412;2023-07-09T06:17:03;10.85;;;4.80;;
27794;SDS011;15176;50.844;4.412;2023-07-09T06:19:29;9.95;;;5.20;;
27794;SDS011;15176;50.844;4.412;2023-07-09T06:21:55;13.35;;;5.38;;
27794;SDS011;15176;50.844;4.412;2023-07-09T06:24:21;10.02;;;5.22;;
27794;SDS011;15176;50.844;4.412;2023-07-09T06:26:46;16.23;;;5.38;;
27794;SDS011;15176;50.844;4.412;2023-07-09T06:29:12;12.23;;;5.90;;
27794;SDS011;15176;50.844;4.412;2023-07-09T06:31:38;12.75;;;5.72;;
27794;SDS011;15176;50.844;4.412;2023-07-09T06:34:05;12.68;;;5.70;;
27794;SDS011;15176;50.844;4.412;2023-07-09T06:36:35;11.25;;;5.28;;
27794;SDS011;15176;50.844;4.412;2023-07-09T06:39:01;13.60;;;5.40;;
27794;SDS011;15176;50.844;4.412;2023-07-09T06:41:28;11.30;;;5.55;;
27794;SDS011;15176;50.844;4.412;2023-07-09T06:43:54;12.18;;;5.20;;
27794;SDS011;15176;50.844;4.412;2023-07-09T06:46:20;10.90;;;5.78;;
27794;SDS011;15176;50.844;4.412;2023-07-09T06:48:45;14.23;;;5.35;;
27794;SDS011;15176;50.844;4.412;2023-07-09T06:51:13;11.43;;;5.55;;
27794;SDS011;15176;50.844;4.412;2023-07-09T06:53:38;14.40;;;5.20;;
27794;SDS011;15176;50.844;4.412;2023-07-09T06:56:06;11.00;;;5.53;;
27794;SDS011;15176;50.844;4.412;2023-07-09T06:58:33;12.02;;;5.28;;
27794;SDS011;15176;50.844;4.412;2023-07-09T07:01:02;11.25;;;5.68;;
27794;SDS011;15176;50.844;4.412;2023-07-09T07:03:29;10.98;;;6.03;;
27794;SDS011;15176;50.844;4.412;2023-07-09T07:05:57;14.55;;;6.55;;
27794;SDS011;15176;50.844;4.412;2023-07-09T07:08:24;15.20;;;6.65;;
27794;SDS011;15176;50.844;4.412;2023-07-09T07:10:51;13.63;;;6.63;;
27794;SDS011;15176;50.844;4.412;2023-07-09T07:13:28;11.50;;;7.07;;
27794;SDS011;15176;50.844;4.412;2023-07-09T07:15:54;16.98;;;7.82;;
27794;SDS011;15176;50.844;4.412;2023-07-09T07:18:20;14.20;;;6.57;;
27794;SDS011;15176;50.844;4.412;2023-07-09T07:20:46;14.43;;;9.02;;
27794;SDS011;15176;50.844;4.412;2023-07-09T07:23:12;17.02;;;10.18;;
27794;SDS011;15176;50.844;4.412;2023-07-09T07:25:37;23.45;;;12.88;;
27794;SDS011;15176;50.844;4.412;2023-07-09T07:28:03;18.80;;;12.48;;
27794;SDS011;15176;50.844;4.412;2023-07-09T07:30:32;20.73;;;11.93;;
27794;SDS011;15176;50.844;4.412;2023-07-09T07:32:58;18.80;;;11.38;;
27794;SDS011;15176;50.844;4.412;2023-07-09T07:35:23;23.40;;;12.40;;
27794;SDS011;15176;50.844;4.412;2023-07-09T07:37:50;34.22;;;14.38;;
27794;SDS011;15176;50.844;4.412;2023-07-09T07:40:16;24.27;;;14.38;;
27794;SDS011;15176;50.844;4.412;2023-07-09T07:42:42;23.48;;;13.85;;
27794;SDS011;15176;50.844;4.412;2023-07-09T07:45:08;23.73;;;13.30;;
27794;SDS011;15176;50.844;4.412;2023-07-09T07:47:34;17.23;;;9.93;;
27794;SDS011;15176;50.844;4.412;2023-07-09T07:50:00;21.42;;;11.63;;
27794;SDS011;15176;50.844;4.412;2023-07-09T07:52:25;19.75;;;13.30;;
27794;SDS011;15176;50.844;4.412;2023-07-09T07:54:52;17.90;;;10.38;;
27794;SDS011;15176;50.844;4.412;2023-07-09T07:57:19;25.65;;;16.80;;
27794;SDS011;15176;50.844;4.412;2023-07-09T07:59:49;28.17;;;18.42;;
27794;SDS011;15176;50.844;4.412;2023-07-09T08:02:14;26.00;;;17.38;;
27794;SDS011;15176;50.844;4.412;2023-07-09T08:04:40;31.23;;;21.25;;
27794;SDS011;15176;50.844;4.412;2023-07-09T08:07:09;30.33;;;19.35;;
27794;SDS011;15176;50.844;4.412;2023-07-09T08:09:35;30.35;;;18.15;;
27794;SDS011;15176;50.844;4.412;2023-07-09T08:12:04;33.00;;;19.23;;
27794;SDS011;15176;50.844;4.412;2023-07-09T08:14:35;36.05;;;20.08;;
27794;SDS011;15176;50.844;4.412;2023-07-09T08:17:01;35.78;;;20.38;;
27794;SDS011;15176;50.844;4.412;2023-07-09T08:19:27;32.45;;;19.95;;
27794;SDS011;15176;50.844;4.412;2023-07-09T08:21:53;34.03;;;20.63;;
27794;SDS011;15176;50.844;4.412;2023-07-09T08:24:19;30.77;;;19.30;;
27794;SDS011;15176;50.844;4.412;2023-07-09T08:26:45;33.17;;;20.05;;
27794;SDS011;15176;50.844;4.412;2023-07-09T08:29:10;30.88;;;20.13;;
27794;SDS011;15176;50.844;4.412;2023-07-09T08:31:37;30.77;;;20.05;;
27794;SDS011;15176;50.844;4.412;2023-07-09T08:34:04;36.03;;;21.85;;
27794;SDS011;15176;50.844;4.412;2023-07-09T08:36:32;34.13;;;21.23;;
27794;SDS011;15176;50.844;4.412;2023-07-09T08:39:01;33.80;;;19.58;;
27794;SDS011;15176;50.844;4.412;2023-07-09T08:44:19;30.83;;;21.25;;
27794;SDS011;15176;50.844;4.412;2023-07-09T08:47:02;30.98;;;19.13;;
27794;SDS011;15176;50.844;4.412;2023-07-09T08:49:44;30.75;;;18.27;;
27794;SDS011;15176;50.844;4.412;2023-07-09T08:52:15;29.95;;;18.98;;
27794;SDS011;15176;50.844;4.412;2023-07-09T08:54:56;33.25;;;21.05;;
27794;SDS011;15176;50.844;4.412;2023-07-09T08:57:27;25.42;;;16.10;;
27794;SDS011;15176;50.844;4.412;2023-07-09T09:00:02;24.77;;;17.90;;
27794;SDS011;15176;50.844;4.412;2023-07-09T09:02:51;31.33;;;18.80;;
27794;SDS011;15176;50.844;4.412;2023-07-09T09:05:25;28.23;;;16.88;;
27794;SDS011;15176;50.844;4.412;2023-07-09T09:07:58;24.15;;;16.13;;
27794;SDS011;15176;50.844;4.412;2023-07-09T09:10:40;29.25;;;16.98;;
27794;SDS011;15176;50.844;4.412;2023-07-09T09:13:12;25.52;;;15.73;;
27794;SDS011;15176;50.844;4.412;2023-07-09T09:15:42;25.10;;;16.38;;
27794;SDS011;15176;50.844;4.412;2023-07-09T09:18:17;22.55;;;14.77;;
27794;SDS011;15176;50.844;4.412;2023-07-09T09:21:07;22.63;;;15.55;;
27794;SDS011;15176;50.844;4.412;2023-07-09T09:23:46;24.50;;;15.68;;
27794;SDS011;15176;50.844;4.412;2023-07-09T09:26:18;25.73;;;15.55;;
27794;SDS011;15176;50.844;4.412;2023-07-09T09:28:52;25.23;;;15.48;;
27794;SDS011;15176;50.844;4.412;2023-07-09T09:31:18;25.40;;;16.48;;
27794;SDS011;15176;50.844;4.412;2023-07-09T09:33:46;24.08;;;16.33;;
27794;SDS011;15176;50.844;4.412;2023-07-09T09:36:20;25.40;;;16.50;;
27794;SDS011;15176;50.844;4.412;2023-07-09T09:38:51;24.90;;;16.55;;
27794;SDS011;15176;50.844;4.412;2023-07-09T09:41:18;26.77;;;15.88;;
27794;SDS011;15176;50.844;4.412;2023-07-09T09:43:47;21.77;;;15.55;;
27794;SDS011;15176;50.844;4.412;2023-07-09T09:46:17;25.40;;;17.83;;
27794;SDS011;15176;50.844;4.412;2023-07-09T09:48:48;28.42;;;17.70;;
27794;SDS011;15176;50.844;4.412;2023-07-09T09:51:16;28.77;;;16.73;;
27794;SDS011;15176;50.844;4.412;2023-07-09T09:53:49;28.85;;;16.38;;
27794;SDS011;15176;50.844;4.412;2023-07-09T09:56:18;22.10;;;15.32;;
27794;SDS011;15176;50.844;4.412;2023-07-09T09:58:52;31.95;;;18.58;;
27794;SDS011;15176;50.844;4.412;2023-07-09T10:01:19;23.95;;;16.60;;
27794;SDS011;15176;50.844;4.412;2023-07-09T10:03:50;26.23;;;17.15;;
27794;SDS011;15176;50.844;4.412;2023-07-09T10:06:21;20.90;;;14.18;;
27794;SDS011;15176;50.844;4.412;2023-07-09T10:08:55;23.13;;;13.85;;
27794;SDS011;15176;50.844;4.412;2023-07-09T10:11:31;27.80;;;17.45;;
27794;SDS011;15176;50.844;4.412;2023-07-09T10:17:06;22.52;;;14.82;;
27794;SDS011;15176;50.844;4.412;2023-07-09T10:20:18;26.83;;;17.13;;
27794;SDS011;15176;50.844;4.412;2023-07-09T10:26:12;20.13;;;14.02;;
27794;SDS011;15176;50.844;4.412;2023-07-09T10:31:50;30.00;;;14.10;;
27794;SDS011;15176;50.844;4.412;2023-07-09T10:40:30;24.23;;;12.90;;
27794;SDS011;15176;50.844;4.412;2023-07-09T10:43:02;17.15;;;10.82;;
27794;SDS011;15176;50.844;4.412;2023-07-09T10:48:39;16.63;;;10.75;;
27794;SDS011;15176;50.844;4.412;2023-07-09T10:51:15;18.95;;;10.98;;
27794;SDS011;15176;50.844;4.412;2023-07-09T10:53:52;16.17;;;10.98;;
27794;SDS011;15176;50.844;4.412;2023-07-09T10:56:32;23.00;;;10.95;;
27794;SDS011;15176;50.844;4.412;2023-07-09T11:01:51;17.35;;;11.75;;
27794;SDS011;15176;50.844;4.412;2023-07-09T11:06:47;14.57;;;9.85;;
27794;SDS011;15176;50.844;4.412;2023-07-09T11:09:18;15.57;;;8.60;;
27794;SDS011;15176;50.844;4.412;2023-07-09T11:11:53;15.77;;;9.15;;
27794;SDS011;15176;50.844;4.412;2023-07-09T11:14:34;19.05;;;9.60;;
27794;SDS011;15176;50.844;4.412;2023-07-09T11:17:04;11.95;;;7.30;;
27794;SDS011;15176;50.844;4.412;2023-07-09T11:19:33;12.10;;;6.80;;
27794;SDS011;15176;50.844;4.412;2023-07-09T11:22:20;12.68;;;7.28;;
27794;SDS011;15176;50.844;4.412;2023-07-09T11:24:49;12.30;;;6.18;;
27794;SDS011;15176;50.844;4.412;2023-07-09T11:27:29;11.13;;;6.00;;
27794;SDS011;15176;50.844;4.412;2023-07-09T11:29:58;10.02;;;5.45;;
27794;SDS011;15176;50.844;4.412;2023-07-09T11:32:46;8.98;;;5.20;;
27794;SDS011;15176;50.844;4.412;2023-07-09T11:35:21;12.27;;;5.47;;
27794;SDS011;15176;50.844;4.412;2023-07-09T11:37:50;8.63;;;4.63;;
27794;SDS011;15176;50.844;4.412;2023-07-09T11:40:18;8.27;;;4.50;;
27794;SDS011;15176;50.844;4.412;2023-07-09T11:45:26;13.75;;;4.85;;
27794;SDS011;15176;50.844;4.412;2023-07-09T11:48:06;9.57;;;4.60;;
27794;SDS011;15176;50.844;4.412;2023-07-09T11:50:51;10.70;;;4.72;;
27794;SDS011;15176;50.844;4.412;2023-07-09T11:53:29;10.95;;;4.65;;
27794;SDS011;15176;50.844;4.412;2023-07-09T11:56:11;11.80;;;4.50;;
27794;SDS011;15176;50.844;4.412;2023-07-09T11:58:47;10.35;;;4.68;;
27794;SDS011;15176;50.844;4.412;2023-07-09T12:01:14;8.30;;;4.50;;
27794;SDS011;15176;50.844;4.412;2023-07-09T12:03:44;9.55;;;4.65;;
27794;SDS011;15176;50.844;4.412;2023-07-09T12:06:23;9.23;;;4.60;;
27794;SDS011;15176;50.844;4.412;2023-07-09T12:08:52;8.63;;;4.38;;
27794;SDS011;15176;50.844;4.412;2023-07-09T12:11:22;12.93;;;5.07;;
27794;SDS011;15176;50.844;4.412;2023-07-09T12:13:50;11.18;;;4.90;;
27794;SDS011;15176;50.844;4.412;2023-07-09T12:16:39;9.55;;;4.55;;
27794;SDS011;15176;50.844;4.412;2023-07-09T12:19:05;11.07;;;5.10;;
27794;SDS011;15176;50.844;4.412;2023-07-09T12:21:34;9.57;;;4.70;;
27794;SDS011;15176;50.844;4.412;2023-07-09T12:24:02;11.88;;;5.25;;
27794;SDS011;15176;50.844;4.412;2023-07-09T12:26:49;14.45;;;5.18;;
27794;SDS011;15176;50.844;4.412;2023-07-09T12:29:19;13.48;;;5.97;;
27794;SDS011;15176;50.844;4.412;2023-07-09T12:31:45;16.30;;;6.55;;
27794;SDS011;15176;50.844;4.412;2023-07-09T12:34:13;11.93;;;6.47;;
27794;SDS011;15176;50.844;4.412;2023-07-09T12:36:42;17.80;;;7.18;;
27794;SDS011;15176;50.844;4.412;2023-07-09T12:39:12;12.75;;;6.97;;
27794;SDS011;15176;50.844;4.412;2023-07-09T12:41:43;11.80;;;6.15;;
27794;SDS011;15176;50.844;4.412;2023-07-09T12:44:20;14.25;;;6.90;;
27794;SDS011;15176;50.844;4.412;2023-07-09T12:46:48;14.52;;;7.43;;
27794;SDS011;15176;50.844;4.412;2023-07-09T12:49:21;14.90;;;6.93;;
27794;SDS011;15176;50.844;4.412;2023-07-09T12:51:53;12.05;;;7.10;;
27794;SDS011;15176;50.844;4.412;2023-07-09T12:54:27;9.60;;;5.50;;
27794;SDS011;15176;50.844;4.412;2023-07-09T12:56:54;14.60;;;7.68;;
27794;SDS011;15176;50.844;4.412;2023-07-09T12:59:26;12.40;;;6.97;;
27794;SDS011;15176;50.844;4.412;2023-07-09T13:02:26;14.77;;;7.22;;
27794;SDS011;15176;50.844;4.412;2023-07-09T13:05:01;17.83;;;8.23;;
27794;SDS011;15176;50.844;4.412;2023-07-09T13:07:36;13.45;;;7.50;;
27794;SDS011;15176;50.844;4.412;2023-07-09T13:10:14;14.15;;;8.23;;
27794;SDS011;15176;50.844;4.412;2023-07-09T13:12:51;18.67;;;8.60;;
27794;SDS011;15176;50.844;4.412;2023-07-09T13:15:21;15.82;;;8.85;;
27794;SDS011;15176;50.844;4.412;2023-07-09T13:17:59;14.77;;;7.95;;
27794;SDS011;15176;50.844;4.412;2023-07-09T13:20:31;18.75;;;8.38;;
27794;SDS011;15176;50.844;4.412;2023-07-09T13:23:00;14.63;;;8.32;;
27794;SDS011;15176;50.844;4.412;2023-07-09T13:25:26;17.13;;;8.68;;
27794;SDS011;15176;50.844;4.412;2023-07-09T13:27:54;13.18;;;8.13;;
27794;SDS011;15176;50.844;4.412;2023-07-09T13:30:20;14.60;;;8.43;;
27794;SDS011;15176;50.844;4.412;2023-07-09T13:32:46;14.88;;;8.77;;
27794;SDS011;15176;50.844;4.412;2023-07-09T13:35:14;13.80;;;7.97;;
27794;SDS011;15176;50.844;4.412;2023-07-09T13:37:42;11.45;;;7.80;;
27794;SDS011;15176;50.844;4.412;2023-07-09T13:40:15;19.40;;;9.25;;
27794;SDS011;15176;50.844;4.412;2023-07-09T13:42:42;14.95;;;7.65;;
27794;SDS011;15176;50.844;4.412;2023-07-09T13:45:16;14.27;;;7.95;;
27794;SDS011;15176;50.844;4.412;2023-07-09T13:47:44;14.23;;;7.93;;
27794;SDS011;15176;50.844;4.412;2023-07-09T13:50:12;14.75;;;7.38;;
27794;SDS011;15176;50.844;4.412;2023-07-09T13:52:39;14.80;;;7.35;;
27794;SDS011;15176;50.844;4.412;2023-07-09T13:55:05;14.07;;;7.50;;
27794;SDS011;15176;50.844;4.412;2023-07-09T13:57:42;14.25;;;8.07;;
27794;SDS011;15176;50.844;4.412;2023-07-09T14:00:10;18.67;;;7.22;;
27794;SDS011;15176;50.844;4.412;2023-07-09T14:02:38;15.73;;;7.88;;
27794;SDS011;15176;50.844;4.412;2023-07-09T14:05:04;12.90;;;6.80;;
27794;SDS011;15176;50.844;4.412;2023-07-09T14:07:33;13.20;;;7.07;;
27794;SDS011;15176;50.844;4.412;2023-07-09T14:10:05;13.27;;;6.90;;
27794;SDS011;15176;50.844;4.412;2023-07-09T14:12:36;13.32;;;7.20;;
27794;SDS011;15176;50.844;4.412;2023-07-09T14:15:09;12.65;;;7.28;;
27794;SDS011;15176;50.844;4.412;2023-07-09T14:17:43;13.80;;;7.32;;
27794;SDS011;15176;50.844;4.412;2023-07-09T14:20:13;12.90;;;6.80;;
27794;SDS011;15176;50.844;4.412;2023-07-09T14:22:40;15.02;;;6.82;;
27794;SDS011;15176;50.844;4.412;2023-07-09T14:25:15;10.40;;;5.72;;
27794;SDS011;15176;50.844;4.412;2023-07-09T14:27:47;11.77;;;5.35;;
27794;SDS011;15176;50.844;4.412;2023-07-09T14:30:16;15.43;;;5.13;;
27794;SDS011;15176;50.844;4.412;2023-07-09T14:32:44;12.77;;;5.25;;
27794;SDS011;15176;50.844;4.412;2023-07-09T14:35:16;10.88;;;4.90;;
27794;SDS011;15176;50.844;4.412;2023-07-09T14:37:44;10.95;;;5.50;;
27794;SDS011;15176;50.844;4.412;2023-07-09T14:40:11;12.20;;;5.80;;
27794;SDS011;15176;50.844;4.412;2023-07-09T14:42:38;11.25;;;5.28;;
27794;SDS011;15176;50.844;4.412;2023-07-09T14:47:50;10.45;;;5.18;;
27794;SDS011;15176;50.844;4.412;2023-07-09T14:50:17;11.88;;;5.35;;
27794;SDS011;15176;50.844;4.412;2023-07-09T14:52:44;10.98;;;6.05;;
27794;SDS011;15176;50.844;4.412;2023-07-09T14:57:45;10.32;;;5.25;;
27794;SDS011;15176;50.844;4.412;2023-07-09T15:00:18;11.70;;;5.22;;
27794;SDS011;15176;50.844;4.412;2023-07-09T15:02:47;9.05;;;4.50;;
27794;SDS011;15176;50.844;4.412;2023-07-09T15:05:19;14.85;;;4.82;;
27794;SDS011;15176;50.844;4.412;2023-07-09T15:07:47;8.90;;;4.93;;
27794;SDS011;15176;50.844;4.412;2023-07-09T15:10:14;9.63;;;4.60;;
27794;SDS011;15176;50.844;4.412;2023-07-09T15:12:42;9.95;;;4.57;;
27794;SDS011;15176;50.844;4.412;2023-07-09T15:15:15;10.30;;;4.90;;
27794;SDS011;15176;50.844;4.412;2023-07-09T15:17:49;7.03;;;4.00;;
27794;SDS011;15176;50.844;4.412;2023-07-09T15:20:25;9.73;;;4.32;;
27794;SDS011;15176;50.844;4.412;2023-07-09T15:23:02;7.45;;;4.40;;
27794;SDS011;15176;50.844;4.412;2023-07-09T15:25:28;9.38;;;4.60;;
27794;SDS011;15176;50.844;4.412;2023-07-09T15:27:56;10.27;;;4.30;;
27794;SDS011;15176;50.844;4.412;2023-07-09T15:30:23;7.65;;;4.00;;
27794;SDS011;15176;50.844;4.412;2023-07-09T15:32:50;8.05;;;4.45;;
27794;SDS011;15176;50.844;4.412;2023-07-09T15:35:17;10.55;;;4.53;;
27794;SDS011;15176;50.844;4.412;2023-07-09T15:37:44;8.65;;;3.90;;
27794;SDS011;15176;50.844;4.412;2023-07-09T15:40:18;7.55;;;4.28;;
27794;SDS011;15176;50.844;4.412;2023-07-09T15:42:47;7.57;;;4.10;;
27794;SDS011;15176;50.844;4.412;2023-07-09T15:45:15;11.48;;;5.05;;
27794;SDS011;15176;50.844;4.412;2023-07-09T15:47:42;7.68;;;3.97;;
27794;SDS011;15176;50.844;4.412;2023-07-09T15:52:58;7.75;;;4.40;;
27794;SDS011;15176;50.844;4.412;2023-07-09T15:55:25;11.45;;;4.35;;
27794;SDS011;15176;50.844;4.412;2023-07-09T15:57:53;9.55;;;4.38;;
27794;SDS011;15176;50.844;4.412;2023-07-09T16:00:21;9.55;;;4.55;;
27794;SDS011;15176;50.844;4.412;2023-07-09T16:02:50;10.35;;;4.70;;
27794;SDS011;15176;50.844;4.412;2023-07-09T16:05:27;9.20;;;4.57;;
27794;SDS011;15176;50.844;4.412;2023-07-09T16:07:55;11.63;;;5.43;;
27794;SDS011;15176;50.844;4.412;2023-07-09T16:10:25;12.05;;;4.72;;
27794;SDS011;15176;50.844;4.412;2023-07-09T16:12:53;11.65;;;4.70;;
27794;SDS011;15176;50.844;4.412;2023-07-09T16:15:20;9.75;;;4.70;;
27794;SDS011;15176;50.844;4.412;2023-07-09T16:17:47;10.27;;;4.68;;
27794;SDS011;15176;50.844;4.412;2023-07-09T16:20:14;9.80;;;4.80;;
27794;SDS011;15176;50.844;4.412;2023-07-09T16:22:43;13.90;;;4.70;;
27794;SDS011;15176;50.844;4.412;2023-07-09T16:27:40;9.77;;;4.32;;
27794;SDS011;15176;50.844;4.412;2023-07-09T16:32:45;10.32;;;5.60;;
27794;SDS011;15176;50.844;4.412;2023-07-09T16:35:12;10.10;;;5.55;;
27794;SDS011;15176;50.844;4.412;2023-07-09T16:37:39;12.45;;;6.18;;
27794;SDS011;15176;50.844;4.412;2023-07-09T16:40:25;17.08;;;7.55;;
27794;SDS011;15176;50.844;4.412;2023-07-09T16:42:55;19.48;;;8.57;;
27794;SDS011;15176;50.844;4.412;2023-07-09T16:45:23;13.65;;;8.75;;
27794;SDS011;15176;50.844;4.412;2023-07-09T16:47:51;18.80;;;9.30;;
27794;SDS011;15176;50.844;4.412;2023-07-09T16:50:18;19.08;;;8.95;;
27794;SDS011;15176;50.844;4.412;2023-07-09T16:52:49;18.23;;;10.02;;
27794;SDS011;15176;50.844;4.412;2023-07-09T16:55:20;20.70;;;9.98;;
27794;SDS011;15176;50.844;4.412;2023-07-09T16:57:57;19.38;;;9.98;;
27794;SDS011;15176;50.844;4.412;2023-07-09T17:00:26;18.23;;;9.80;;
27794;SDS011;15176;50.844;4.412;2023-07-09T17:03:03;17.55;;;9.90;;
27794;SDS011;15176;50.844;4.412;2023-07-09T17:05:31;17.63;;;9.48;;
27794;SDS011;15176;50.844;4.412;2023-07-09T17:07:57;23.05;;;10.13;;
27794;SDS011;15176;50.844;4.412;2023-07-09T17:10:23;19.10;;;10.05;;
27794;SDS011;15176;50.844;4.412;2023-07-09T17:15:51;15.38;;;8.70;;
27794;SDS011;15176;50.844;4.412;2023-07-09T17:18:26;15.10;;;8.15;;
27794;SDS011;15176;50.844;4.412;2023-07-09T17:20:56;17.30;;;8.35;;
27794;SDS011;15176;50.844;4.412;2023-07-09T17:23:25;15.48;;;7.95;;
27794;SDS011;15176;50.844;4.412;2023-07-09T17:25:58;14.77;;;7.95;;
27794;SDS011;15176;50.844;4.412;2023-07-09T17:28:31;14.30;;;8.02;;
27794;SDS011;15176;50.844;4.412;2023-07-09T17:30:57;16.17;;;8.00;;
27794;SDS011;15176;50.844;4.412;2023-07-09T17:33:26;18.85;;;7.53;;
27794;SDS011;15176;50.844;4.412;2023-07-09T17:35:52;13.60;;;6.57;;
27794;SDS011;15176;50.844;4.412;2023-07-09T17:38:22;12.40;;;6.47;;
27794;SDS011;15176;50.844;4.412;2023-07-09T17:40:50;12.98;;;6.57;;
27794;SDS011;15176;50.844;4.412;2023-07-09T17:43:18;11.50;;;6.82;;
27794;SDS011;15176;50.844;4.412;2023-07-09T17:45:46;10.88;;;5.97;;
27794;SDS011;15176;50.844;4.412;2023-07-09T17:48:13;13.35;;;5.65;;
27794;SDS011;15176;50.844;4.412;2023-07-09T17:50:44;9.57;;;5.10;;
27794;SDS011;15176;50.844;4.412;2023-07-09T17:56:19;9.45;;;3.97;;
27794;SDS011;15176;50.844;4.412;2023-07-09T17:58:46;10.05;;;3.75;;
27794;SDS011;15176;50.844;4.412;2023-07-09T18:01:13;8.90;;;3.50;;
27794;SDS011;15176;50.844;4.412;2023-07-09T18:03:38;8.98;;;3.65;;
27794;SDS011;15176;50.844;4.412;2023-07-09T18:06:04;10.52;;;4.45;;
27794;SDS011;15176;50.844;4.412;2023-07-09T18:08:32;10.52;;;4.00;;
27794;SDS011;15176;50.844;4.412;2023-07-09T18:10:58;8.27;;;3.60;;
27794;SDS011;15176;50.844;4.412;2023-07-09T18:13:24;9.68;;;3.53;;
27794;SDS011;15176;50.844;4.412;2023-07-09T18:15:53;11.30;;;3.42;;
27794;SDS011;15176;50.844;4.412;2023-07-09T18:18:19;8.93;;;2.95;;
27794;SDS011;15176;50.844;4.412;2023-07-09T18:20:46;7.95;;;3.03;;
27794;SDS011;15176;50.844;4.412;2023-07-09T18:23:12;6.63;;;2.60;;
27794;SDS011;15176;50.844;4.412;2023-07-09T18:25:39;8.88;;;2.80;;
27794;SDS011;15176;50.844;4.412;2023-07-09T18:28:12;8.70;;;2.80;;
27794;SDS011;15176;50.844;4.412;2023-07-09T18:30:44;9.18;;;2.45;;
27794;SDS011;15176;50.844;4.412;2023-07-09T18:33:09;7.38;;;2.00;;
27794;SDS011;15176;50.844;4.412;2023-07-09T18:35:36;7.55;;;2.20;;
27794;SDS011;15176;50.844;4.412;2023-07-09T18:38:04;6.85;;;2.20;;
27794;SDS011;15176;50.844;4.412;2023-07-09T18:40:44;8.50;;;2.28;;
27794;SDS011;15176;50.844;4.412;2023-07-09T18:43:11;5.80;;;2.00;;
27794;SDS011;15176;50.844;4.412;2023-07-09T18:45:39;6.60;;;2.00;;
27794;SDS011;15176;50.844;4.412;2023-07-09T18:48:12;7.63;;;2.28;;
27794;SDS011;15176;50.844;4.412;2023-07-09T18:50:40;8.05;;;3.17;;
27794;SDS011;15176;50.844;4.412;2023-07-09T18:53:07;7.35;;;2.40;;
27794;SDS011;15176;50.844;4.412;2023-07-09T18:55:36;8.57;;;2.30;;
27794;SDS011;15176;50.844;4.412;2023-07-09T18:58:05;8.52;;;2.67;;
27794;SDS011;15176;50.844;4.412;2023-07-09T19:00:39;8.05;;;2.60;;
27794;SDS011;15176;50.844;4.412;2023-07-09T19:03:08;7.47;;;2.30;;
27794;SDS011;15176;50.844;4.412;2023-07-09T19:08:24;7.43;;;2.50;;
27794;SDS011;15176;50.844;4.412;2023-07-09T19:10:52;8.38;;;1.73;;
27794;SDS011;15176;50.844;4.412;2023-07-09T19:13:18;7.03;;;1.90;;
27794;SDS011;15176;50.844;4.412;2023-07-09T19:15:46;8.38;;;2.45;;
27794;SDS011;15176;50.844;4.412;2023-07-09T19:18:23;6.82;;;2.10;;
27794;SDS011;15176;50.844;4.412;2023-07-09T19:20:53;7.03;;;2.17;;
27794;SDS011;15176;50.844;4.412;2023-07-09T19:23:19;7.78;;;2.13;;
27794;SDS011;15176;50.844;4.412;2023-07-09T19:25:47;8.75;;;2.30;;
27794;SDS011;15176;50.844;4.412;2023-07-09T19:28:14;6.90;;;2.65;;
27794;SDS011;15176;50.844;4.412;2023-07-09T19:30:41;7.28;;;2.50;;
27794;SDS011;15176;50.844;4.412;2023-07-09T19:33:11;10.05;;;2.55;;
27794;SDS011;15176;50.844;4.412;2023-07-09T19:35:46;9.68;;;2.40;;
27794;SDS011;15176;50.844;4.412;2023-07-09T19:38:16;9.35;;;2.10;;
27794;SDS011;15176;50.844;4.412;2023-07-09T19:40:42;7.55;;;2.90;;
27794;SDS011;15176;50.844;4.412;2023-07-09T19:43:09;7.60;;;2.30;;
27794;SDS011;15176;50.844;4.412;2023-07-09T19:45:37;8.65;;;2.42;;